Rechercher aéroport 
image banner adimage banner adimage banner ad
image banner ad

93CN - Ucsd Jacobs Medical Center Rooftop Heliport

Situé à La Jolla, United States

ICAO - 93CN, IATA -

Données fournies par Airmate  

Information générale

Coordonnées: N32°52'40" W117°13'36"
Élévation : 538 feet MSL.
 
Voir autres Aéroports à California

Données opérationnelles

Special qualification required
Heure actuelle UTC:
Heure actuelle locale:
Météo à : KNKX - Miramar Mcas ( 8 km )
METAR: KNKX 262055Z 25006KT 10SM OVC014 22/18 A2996 RMK AO2 SLP139 T02220183 58003
TAF: TAF KNKX 2621/2721 VRB05KT 9999 OVC014 QNH2993INS FM270200 VRB05KT 9999 SCT010 SCT120 QNH2991INS BECMG 2705/2707 VRB05KT 9999 BKN015 QNH2994INS FM270800 VRB05KT 9999 OVC011 QNH2993INS BECMG 2718/2720 9999 SCT040 SCT100 QNH2997INS T24/2700Z T18/2713Z
Voir NOTAMs / SUP AIP / TFR affectant cet aéroport [VIEW]
Fréquences de communication: [VIEW]

Pistes:

Coordonnées de l'aéroport

Adresse: La Jolla United States

Vue satellite de 93CN